createdAt,value
2023-05-22T00:00:54.446Z,31.97
2023-05-22T00:01:54.485Z,31.97
2023-05-22T00:02:54.613Z,31.98
2023-05-22T00:03:54.580Z,31.98
2023-05-22T00:04:54.755Z,32.02
2023-05-22T00:05:54.609Z,32.02
2023-05-22T00:06:54.657Z,32.02
2023-05-22T00:07:54.679Z,32.05
2023-05-22T00:08:54.720Z,32.06
2023-05-22T00:09:54.749Z,32.06
2023-05-22T00:10:54.798Z,32.06
2023-05-22T00:11:54.841Z,32.07
2023-05-22T00:12:54.882Z,32.06
2023-05-22T00:13:54.920Z,32.09
2023-05-22T00:14:54.942Z,32.07
2023-05-22T00:15:54.989Z,32.09
2023-05-22T00:16:55.151Z,32.09
2023-05-22T00:17:55.095Z,32.07
2023-05-22T00:18:55.132Z,32.08
2023-05-22T00:19:55.140Z,32.10
2023-05-22T00:20:55.165Z,32.13
2023-05-22T00:21:55.215Z,32.11
2023-05-22T00:22:55.256Z,32.12
2023-05-22T00:23:55.267Z,32.12
2023-05-22T00:24:55.360Z,32.15
2023-05-22T00:25:55.379Z,32.14
2023-05-22T00:26:55.479Z,32.14
2023-05-22T00:27:55.417Z,32.13
2023-05-22T00:28:55.472Z,32.15
2023-05-22T00:29:55.498Z,32.15
2023-05-22T00:30:55.522Z,32.19
2023-05-22T00:31:55.565Z,32.19
2023-05-22T00:32:55.680Z,32.19
2023-05-22T00:33:55.666Z,32.18
2023-05-22T00:34:55.703Z,32.16
2023-05-22T00:35:55.720Z,32.16
2023-05-22T00:36:55.730Z,32.13
2023-05-22T00:37:55.777Z,32.13
2023-05-22T00:38:55.802Z,32.14
2023-05-22T00:39:55.844Z,32.15
2023-05-22T00:40:55.859Z,32.16
2023-05-22T00:41:55.910Z,32.17
2023-05-22T00:42:55.949Z,32.18
2023-05-22T00:43:55.965Z,32.21
2023-05-22T00:44:56.001Z,32.17
2023-05-22T00:45:56.028Z,32.20
2023-05-22T00:46:56.127Z,32.20
2023-05-22T00:47:56.133Z,32.19
2023-05-22T00:48:56.240Z,32.21
2023-05-22T00:49:56.169Z,32.17
2023-05-22T00:50:56.221Z,32.15
2023-05-22T00:51:56.250Z,32.14
2023-05-22T00:52:56.286Z,32.15
2023-05-22T00:53:56.318Z,32.15
2023-05-22T00:54:56.377Z,32.18
2023-05-22T00:55:56.415Z,32.21
2023-05-22T00:56:56.450Z,32.22
2023-05-22T00:57:56.480Z,32.21
2023-05-22T00:58:56.526Z,32.22
2023-05-22T00:59:56.570Z,32.25
2023-05-22T01:00:56.609Z,32.22
2023-05-22T01:01:56.665Z,32.23
2023-05-22T01:02:56.756Z,32.25
2023-05-22T01:03:56.748Z,32.24
2023-05-22T01:04:56.734Z,32.25
2023-05-22T01:05:56.787Z,32.23
2023-05-22T01:06:56.816Z,32.23
2023-05-22T01:07:56.860Z,32.22
2023-05-22T01:08:56.887Z,32.23
2023-05-22T01:09:56.925Z,32.23
2023-05-22T01:10:57.103Z,32.21
2023-05-22T01:11:57.013Z,32.21
2023-05-22T01:12:57.027Z,32.24
2023-05-22T01:13:57.083Z,32.25
2023-05-22T01:14:57.110Z,32.24
2023-05-22T01:15:57.158Z,32.28
2023-05-22T01:16:57.192Z,32.25
2023-05-22T01:17:57.256Z,32.29
2023-05-22T01:18:57.281Z,32.24
2023-05-22T01:19:57.285Z,32.30
2023-05-22T01:20:57.314Z,32.29
2023-05-22T01:21:57.344Z,32.29
2023-05-22T01:22:57.413Z,32.30
2023-05-22T01:23:57.435Z,32.29
2023-05-22T01:24:57.460Z,32.30
2023-05-22T01:25:57.509Z,32.29
2023-05-22T01:26:57.544Z,32.30
2023-05-22T01:27:57.569Z,32.25
2023-05-22T01:28:57.620Z,32.28
2023-05-22T01:29:57.667Z,32.29
2023-05-22T01:30:57.687Z,32.28
2023-05-22T01:31:57.716Z,32.28
2023-05-22T01:32:57.815Z,32.27
2023-05-22T01:33:58.160Z,32.30
2023-05-22T01:34:57.850Z,32.29
2023-05-22T01:35:57.859Z,32.32
2023-05-22T01:36:57.903Z,32.31
2023-05-22T01:37:57.939Z,32.33
2023-05-22T01:38:57.955Z,32.33
2023-05-22T01:39:58.007Z,32.35
2023-05-22T01:40:58.049Z,32.37
2023-05-22T01:41:58.069Z,32.36
2023-05-22T01:42:58.106Z,32.35
2023-05-22T01:43:58.143Z,32.35
2023-05-22T01:44:58.183Z,32.36
2023-05-22T01:45:58.250Z,32.36
2023-05-22T01:46:58.238Z,32.34
2023-05-22T01:47:58.296Z,32.34
2023-05-22T01:48:58.341Z,32.36
2023-05-22T01:49:58.356Z,32.36
2023-05-22T01:50:58.378Z,32.34
2023-05-22T01:51:58.412Z,32.34
2023-05-22T01:52:58.465Z,32.36
2023-05-22T01:53:58.487Z,32.37
2023-05-22T01:54:58.513Z,32.36
2023-05-22T01:55:58.654Z,32.35
2023-05-22T01:56:58.594Z,32.32
2023-05-22T01:57:58.631Z,32.32
2023-05-22T01:58:58.648Z,32.30
2023-05-22T01:59:58.687Z,32.32
2023-05-22T02:00:58.747Z,32.31
2023-05-22T02:01:58.817Z,32.33
2023-05-22T02:02:58.881Z,32.32
2023-05-22T02:03:58.854Z,32.32
2023-05-22T02:04:58.865Z,32.34
2023-05-22T02:05:58.895Z,32.33
2023-05-22T02:06:58.934Z,32.35
2023-05-22T02:07:58.971Z,32.34
2023-05-22T02:08:58.990Z,32.36
2023-05-22T02:09:59.026Z,32.34
2023-05-22T02:10:59.057Z,32.33
2023-05-22T02:11:59.105Z,32.34
2023-05-22T02:12:59.130Z,32.36
2023-05-22T02:13:59.176Z,32.37
2023-05-22T02:14:59.218Z,32.37
2023-05-22T02:15:59.257Z,32.36
2023-05-22T02:16:59.274Z,32.36
2023-05-22T02:17:59.452Z,32.39
2023-05-22T02:18:59.387Z,32.39
2023-05-22T02:19:59.376Z,32.38
2023-05-22T02:20:59.448Z,32.37
2023-05-22T02:21:59.442Z,32.34
2023-05-22T02:22:59.460Z,32.36
2023-05-22T02:23:59.503Z,32.34
2023-05-22T02:24:59.533Z,32.34
2023-05-22T02:25:59.549Z,32.34
2023-05-22T02:26:59.581Z,32.29
2023-05-22T02:27:59.626Z,32.31
2023-05-22T02:28:59.649Z,32.34
2023-05-22T02:29:59.689Z,32.34
2023-05-22T02:30:59.774Z,32.35
2023-05-22T02:31:59.749Z,32.35
2023-05-22T02:32:59.825Z,32.36
2023-05-22T02:33:59.829Z,32.37
2023-05-22T02:34:59.861Z,32.35
2023-05-22T02:35:59.896Z,32.38
2023-05-22T02:36:59.929Z,32.36
2023-05-22T02:37:59.964Z,32.37
2023-05-22T02:38:59.979Z,32.39
2023-05-22T02:40:00.143Z,32.38
2023-05-22T02:41:00.053Z,32.39
2023-05-22T02:42:00.119Z,32.38
2023-05-22T02:43:00.133Z,32.38
2023-05-22T02:44:00.163Z,32.39
2023-05-22T02:45:00.168Z,32.38
2023-05-22T02:46:00.209Z,32.38
2023-05-22T02:47:00.340Z,32.39
2023-05-22T02:48:00.337Z,32.38
2023-05-22T02:49:00.287Z,32.39
2023-05-22T02:50:00.319Z,32.38
2023-05-22T02:51:00.365Z,32.39
2023-05-22T02:52:00.384Z,32.38
2023-05-22T02:53:00.435Z,32.37
2023-05-22T02:54:00.480Z,32.39
2023-05-22T02:55:00.509Z,32.39
2023-05-22T02:56:00.518Z,32.40
2023-05-22T02:57:00.564Z,32.37
2023-05-22T02:58:00.588Z,32.38
2023-05-22T02:59:00.625Z,32.35
2023-05-22T03:00:00.690Z,32.37
2023-05-22T03:01:00.690Z,32.35
2023-05-22T03:02:00.841Z,32.37
2023-05-22T03:03:00.889Z,32.39
2023-05-22T03:04:00.811Z,32.39
2023-05-22T03:05:00.807Z,32.38
2023-05-22T03:06:00.855Z,32.40
2023-05-22T03:07:00.885Z,32.40
2023-05-22T03:08:00.904Z,32.40
2023-05-22T03:09:00.933Z,32.40
2023-05-22T03:10:00.981Z,32.37
2023-05-22T03:11:01.007Z,32.38
2023-05-22T03:12:01.029Z,32.38
2023-05-22T03:13:01.061Z,32.36
2023-05-22T03:14:01.104Z,32.36
2023-05-22T03:15:01.142Z,32.36
2023-05-22T03:16:01.189Z,32.37
2023-05-22T03:17:01.212Z,32.34
2023-05-22T03:18:01.329Z,32.35
2023-05-22T03:19:01.310Z,32.30
2023-05-22T03:20:01.323Z,32.31
2023-05-22T03:21:01.337Z,32.29
2023-05-22T03:22:01.379Z,32.30
2023-05-22T03:23:01.427Z,32.28
2023-05-22T03:24:01.475Z,32.26
2023-05-22T03:25:01.578Z,32.24
2023-05-22T03:26:01.548Z,32.26
2023-05-22T03:27:01.573Z,32.27
2023-05-22T03:28:01.608Z,32.28
2023-05-22T03:29:01.680Z,32.26
2023-05-22T03:30:01.674Z,32.28
2023-05-22T03:31:01.729Z,32.29
2023-05-22T03:32:01.769Z,32.30
2023-05-22T03:33:01.878Z,32.29
2023-05-22T03:34:01.892Z,32.31
2023-05-22T03:35:01.865Z,32.30
2023-05-22T03:36:01.885Z,32.31
2023-05-22T03:37:01.924Z,32.34
2023-05-22T03:38:01.961Z,32.30
2023-05-22T03:39:01.992Z,32.30
2023-05-22T03:40:02.030Z,32.30
2023-05-22T03:41:02.077Z,32.32
2023-05-22T03:42:02.096Z,32.30
2023-05-22T03:43:02.149Z,32.31
2023-05-22T03:44:02.175Z,32.29
2023-05-22T03:45:02.247Z,32.29
2023-05-22T03:46:02.256Z,32.28
2023-05-22T03:47:02.366Z,32.29
2023-05-22T03:48:02.377Z,32.32
2023-05-22T03:49:02.336Z,32.31
2023-05-22T03:50:02.346Z,32.30
2023-05-22T03:51:02.382Z,32.29
2023-05-22T03:52:02.429Z,32.29
2023-05-22T03:53:02.471Z,32.29
2023-05-22T03:54:02.501Z,32.29
2023-05-22T03:55:02.535Z,32.31
2023-05-22T03:56:02.556Z,32.28
2023-05-22T03:57:02.609Z,32.28
2023-05-22T03:58:02.638Z,32.30
2023-05-22T03:59:02.683Z,32.28
2023-05-22T04:00:02.701Z,32.29
2023-05-22T04:01:02.720Z,32.29
2023-05-22T04:02:02.782Z,32.28
2023-05-22T04:03:02.895Z,32.29
2023-05-22T04:04:02.837Z,32.26
2023-05-22T04:05:02.916Z,32.25
2023-05-22T04:06:02.934Z,32.27
2023-05-22T04:07:02.941Z,32.26
2023-05-22T04:08:02.999Z,32.26
2023-05-22T04:09:03.137Z,32.22
2023-05-22T04:10:03.052Z,32.25
2023-05-22T04:11:03.097Z,32.24
2023-05-22T04:12:03.107Z,32.23
2023-05-22T04:13:03.157Z,32.22
2023-05-22T04:14:03.212Z,32.22
2023-05-22T04:15:03.225Z,32.23
2023-05-22T04:16:03.304Z,32.21
2023-05-22T04:17:03.297Z,32.23
2023-05-22T04:18:03.343Z,32.22
2023-05-22T04:19:03.465Z,32.23
2023-05-22T04:20:03.373Z,32.21
2023-05-22T04:21:03.428Z,32.21
2023-05-22T04:22:03.461Z,32.23
2023-05-22T04:23:03.497Z,32.23
2023-05-22T04:24:03.524Z,32.25
2023-05-22T04:25:03.561Z,32.24
2023-05-22T04:26:03.593Z,32.24
2023-05-22T04:27:03.618Z,32.25
2023-05-22T04:28:03.662Z,32.23
2023-05-22T04:29:03.691Z,32.22
2023-05-22T04:30:03.828Z,32.23
2023-05-22T04:31:03.794Z,32.23
2023-05-22T04:32:03.786Z,32.21
2023-05-22T04:33:03.889Z,32.21
2023-05-22T04:34:03.859Z,32.16
2023-05-22T04:35:03.900Z,32.15
2023-05-22T04:36:03.908Z,32.16
2023-05-22T04:37:03.955Z,32.15
2023-05-22T04:38:03.998Z,32.18
2023-05-22T04:39:04.010Z,32.18
2023-05-22T04:40:04.060Z,32.18
2023-05-22T04:41:04.076Z,32.22
2023-05-22T04:42:04.117Z,32.24
2023-05-22T04:43:04.145Z,32.25
2023-05-22T04:44:04.170Z,32.25
2023-05-22T04:45:04.212Z,32.22
2023-05-22T04:46:04.237Z,32.24
2023-05-22T04:47:06.026Z,32.22
2023-05-22T04:48:04.345Z,32.17
2023-05-22T04:49:04.261Z,32.12
2023-05-22T04:50:04.232Z,32.11
2023-05-22T04:51:04.246Z,32.03
2023-05-22T04:52:04.335Z,31.99
2023-05-22T04:53:04.460Z,31.98
2023-05-22T04:54:04.238Z,31.97
2023-05-22T04:55:05.929Z,31.97
2023-05-22T04:56:04.192Z,31.98
2023-05-22T04:57:04.190Z,31.99
2023-05-22T04:58:04.195Z,31.98
2023-05-22T04:59:04.188Z,32.01
2023-05-22T05:00:04.163Z,32.02
2023-05-22T05:01:04.193Z,32.04
2023-05-22T05:02:04.165Z,32.07
2023-05-22T05:03:04.308Z,32.07
2023-05-22T05:04:04.180Z,32.10
2023-05-22T05:05:04.141Z,32.09
2023-05-22T05:06:04.133Z,32.11
2023-05-22T05:07:04.120Z,32.11
2023-05-22T05:08:04.117Z,32.11
2023-05-22T05:09:04.119Z,32.16
2023-05-22T05:10:04.173Z,32.16
2023-05-22T05:11:04.186Z,32.18
2023-05-22T05:12:04.218Z,32.20
2023-05-22T05:13:04.261Z,32.25
2023-05-22T05:14:04.260Z,32.28
2023-05-22T05:15:04.374Z,32.32
2023-05-22T05:16:04.336Z,32.38
2023-05-22T05:17:04.391Z,32.37
2023-05-22T05:18:04.556Z,32.41
2023-05-22T05:19:04.433Z,32.43
2023-05-22T05:20:04.423Z,32.47
2023-05-22T05:21:04.456Z,32.49
2023-05-22T05:22:04.489Z,32.54
2023-05-22T05:23:04.517Z,32.55
2023-05-22T05:24:04.615Z,33.46
2023-05-22T05:25:04.564Z,32.86
2023-05-22T05:26:04.592Z,32.80
2023-05-22T05:27:04.651Z,32.74
2023-05-22T05:28:05.022Z,32.72
2023-05-22T05:29:04.673Z,32.80
2023-05-22T05:30:04.705Z,32.78
2023-05-22T05:31:04.732Z,32.71
2023-05-22T05:32:04.765Z,32.86
2023-05-22T05:33:04.872Z,33.14
2023-05-22T05:34:04.811Z,33.41
2023-05-22T05:35:04.814Z,33.73
2023-05-22T05:36:04.827Z,33.76
2023-05-22T05:37:04.957Z,34.75
2023-05-22T05:38:05.032Z,34.35
2023-05-22T05:39:04.906Z,34.77
2023-05-22T05:40:04.981Z,34.69
2023-05-22T05:41:04.903Z,34.88
2023-05-22T05:42:04.903Z,35.32
2023-05-22T05:43:05.863Z,34.99
2023-05-22T05:44:04.908Z,35.17
2023-05-22T05:45:04.911Z,35.11
2023-05-22T05:46:04.956Z,35.10
2023-05-22T05:47:04.893Z,35.23
2023-05-22T05:48:04.989Z,35.21
2023-05-22T05:49:04.893Z,35.29
2023-05-22T05:50:04.880Z,35.29
2023-05-22T05:51:04.883Z,35.35
2023-05-22T05:52:04.890Z,35.43
2023-05-22T05:53:04.878Z,35.49
2023-05-22T05:54:04.879Z,35.60
2023-05-22T05:55:04.879Z,35.61
2023-05-22T05:56:04.884Z,35.60
2023-05-22T05:57:04.872Z,35.66
2023-05-22T05:58:04.875Z,35.60
2023-05-22T05:59:04.899Z,35.68
2023-05-22T06:00:05.042Z,35.75
2023-05-22T06:01:04.905Z,35.79
2023-05-22T06:02:04.924Z,35.83
2023-05-22T06:03:04.968Z,35.83
2023-05-22T06:04:04.978Z,35.81
2023-05-22T06:05:05.000Z,35.89
2023-05-22T06:06:05.056Z,35.89
2023-05-22T06:07:04.999Z,35.87
2023-05-22T06:08:05.046Z,35.87
2023-05-22T06:09:05.082Z,35.93
2023-05-22T06:10:05.548Z,35.98
2023-05-22T06:11:05.192Z,35.86
2023-05-22T06:12:05.290Z,35.80
2023-05-22T06:13:05.291Z,35.76
2023-05-22T06:14:05.337Z,35.80
2023-05-22T06:15:05.396Z,35.83
2023-05-22T06:16:06.701Z,35.84
2023-05-22T06:17:05.521Z,35.87
2023-05-22T06:18:06.074Z,35.89
2023-05-22T06:19:05.720Z,35.90
2023-05-22T06:20:05.724Z,35.98
2023-05-22T06:21:05.810Z,35.98
2023-05-22T06:22:05.919Z,36.01
2023-05-22T06:23:05.899Z,35.97
2023-05-22T06:24:05.940Z,36.01
2023-05-22T06:25:06.025Z,35.95
2023-05-22T06:26:06.069Z,36.00
2023-05-22T06:27:06.537Z,36.00
2023-05-22T06:28:06.699Z,36.01
2023-05-22T06:29:06.230Z,36.07
2023-05-22T06:30:06.325Z,36.01
2023-05-22T06:31:06.372Z,36.11
2023-05-22T06:32:06.602Z,35.78
2023-05-22T06:33:06.539Z,35.70
2023-05-22T06:34:06.596Z,35.77
2023-05-22T06:35:06.600Z,35.82
2023-05-22T06:36:06.649Z,35.87
2023-05-22T06:37:07.054Z,35.99
2023-05-22T06:38:06.808Z,35.95
2023-05-22T06:39:06.846Z,35.88
2023-05-22T06:40:06.886Z,35.86
2023-05-22T06:41:06.961Z,35.82
2023-05-22T06:42:07.027Z,35.81
2023-05-22T06:43:07.107Z,35.79
2023-05-22T06:44:07.226Z,35.74
2023-05-22T06:45:07.197Z,35.69
2023-05-22T06:46:07.364Z,35.67
2023-05-22T06:47:07.585Z,35.55
2023-05-22T06:48:07.420Z,35.73
2023-05-22T06:49:07.421Z,35.71
2023-05-22T06:50:07.514Z,35.69
2023-05-22T06:51:07.532Z,35.71
2023-05-22T06:52:07.585Z,35.75
2023-05-22T06:53:07.655Z,35.80
2023-05-22T06:54:07.704Z,35.81
2023-05-22T06:55:07.804Z,35.79
2023-05-22T06:56:07.895Z,35.79
2023-05-22T06:57:07.823Z,35.87
2023-05-22T06:58:07.889Z,35.89
2023-05-22T06:59:07.930Z,35.86
2023-05-22T07:00:07.978Z,35.90
2023-05-22T07:01:08.089Z,35.97
2023-05-22T07:02:08.025Z,36.01
2023-05-22T07:03:08.097Z,36.01
2023-05-22T07:04:08.105Z,36.06
2023-05-22T07:05:08.162Z,36.04
2023-05-22T07:06:08.339Z,36.07
2023-05-22T07:07:08.255Z,36.11
2023-05-22T07:08:08.267Z,36.14
2023-05-22T07:09:08.296Z,36.12
2023-05-22T07:10:08.323Z,36.11
2023-05-22T07:11:08.394Z,36.17
2023-05-22T07:12:08.421Z,36.18
2023-05-22T07:13:08.431Z,36.12
2023-05-22T07:14:08.462Z,36.11
2023-05-22T07:15:08.483Z,36.15
2023-05-22T07:16:08.634Z,36.19
2023-05-22T07:17:08.569Z,36.23
2023-05-22T07:18:08.599Z,36.26
2023-05-22T07:19:08.644Z,36.28
2023-05-22T07:20:08.631Z,36.23
2023-05-22T07:21:08.668Z,36.26
2023-05-22T07:22:08.712Z,36.30
2023-05-22T07:23:08.710Z,36.32
2023-05-22T07:24:08.724Z,36.33
2023-05-22T07:25:08.790Z,36.34
2023-05-22T07:26:08.777Z,36.37
2023-05-22T07:27:08.783Z,36.45
2023-05-22T07:28:09.037Z,36.34
2023-05-22T07:29:08.851Z,36.44
2023-05-22T07:30:08.879Z,36.08
2023-05-22T07:31:08.954Z,36.11
2023-05-22T07:32:08.931Z,36.15
2023-05-22T07:33:09.105Z,36.40
2023-05-22T07:34:09.005Z,36.45
2023-05-22T07:35:09.028Z,36.57
2023-05-22T07:36:09.083Z,36.50
2023-05-22T07:37:09.158Z,36.42
2023-05-22T07:38:09.584Z,36.36
2023-05-22T07:39:09.177Z,36.51
2023-05-22T07:40:09.215Z,36.51
2023-05-22T07:41:09.244Z,36.70
2023-05-22T07:42:09.300Z,36.82
2023-05-22T07:43:09.576Z,36.68
2023-05-22T07:44:09.330Z,36.78
2023-05-22T07:45:09.353Z,36.81
2023-05-22T07:46:09.446Z,36.65
2023-05-22T07:47:09.424Z,36.92
2023-05-22T07:48:09.606Z,36.74
2023-05-22T07:49:09.452Z,36.47
2023-05-22T07:50:09.580Z,36.67
2023-05-22T07:51:09.497Z,36.31
2023-05-22T07:52:09.535Z,36.11
2023-05-22T07:53:09.554Z,36.36
2023-05-22T07:54:09.590Z,36.05
2023-05-22T07:55:09.593Z,36.01
2023-05-22T07:56:09.610Z,36.13
2023-05-22T07:57:09.644Z,35.93
2023-05-22T07:58:10.084Z,35.90
2023-05-22T07:59:09.677Z,36.06
2023-05-22T08:00:10.101Z,35.64
2023-05-22T08:01:09.853Z,35.35
2023-05-22T08:02:09.895Z,35.43
2023-05-22T08:03:10.258Z,35.38
2023-05-22T08:04:10.126Z,35.25
2023-05-22T08:05:09.829Z,34.98
2023-05-22T08:06:10.067Z,35.08
2023-05-22T08:07:09.811Z,35.36
2023-05-22T08:08:09.834Z,35.33
2023-05-22T08:09:09.866Z,35.28
2023-05-22T08:10:09.884Z,35.53
2023-05-22T08:11:10.370Z,35.47
2023-05-22T08:12:09.927Z,35.14
2023-05-22T08:13:10.034Z,35.03
2023-05-22T08:14:09.972Z,35.33
2023-05-22T08:15:09.999Z,34.78
2023-05-22T08:16:10.005Z,34.66
2023-05-22T08:17:10.043Z,34.83
2023-05-22T08:18:10.149Z,34.42
2023-05-22T08:19:10.207Z,34.46
2023-05-22T08:20:10.319Z,34.78
2023-05-22T08:21:10.092Z,34.39
2023-05-22T08:22:10.087Z,34.24
2023-05-22T08:23:10.575Z,34.08
2023-05-22T08:24:10.113Z,33.95
2023-05-22T08:25:10.106Z,33.77
2023-05-22T08:26:10.118Z,33.63
2023-05-22T08:27:10.155Z,33.78
2023-05-22T08:28:10.153Z,33.45
2023-05-22T08:29:10.182Z,33.53
2023-05-22T08:30:10.211Z,33.58
2023-05-22T08:31:10.277Z,33.49
2023-05-22T08:32:10.242Z,33.15
2023-05-22T08:33:10.322Z,33.30
2023-05-22T08:34:10.621Z,33.08
2023-05-22T08:35:10.347Z,33.07
2023-05-22T08:36:10.393Z,33.18
2023-05-22T08:37:10.409Z,33.09
2023-05-22T08:38:10.467Z,33.41
2023-05-22T08:39:10.582Z,33.37
2023-05-22T08:40:10.454Z,33.46
2023-05-22T08:41:10.476Z,33.54
2023-05-22T08:42:10.492Z,33.68
2023-05-22T08:43:10.499Z,33.63
2023-05-22T08:44:10.495Z,33.83
2023-05-22T08:45:10.534Z,33.99
2023-05-22T08:46:10.519Z,34.16
2023-05-22T08:47:10.557Z,34.36
2023-05-22T08:48:10.513Z,34.43
2023-05-22T08:49:10.582Z,34.55
2023-05-22T08:50:10.528Z,34.75
2023-05-22T08:51:10.496Z,34.86
2023-05-22T08:52:10.537Z,34.91
2023-05-22T08:53:10.537Z,35.02
2023-05-22T08:54:10.550Z,35.11
2023-05-22T08:55:10.584Z,35.17
2023-05-22T08:56:10.659Z,35.41
2023-05-22T08:57:10.710Z,35.49
2023-05-22T08:58:10.725Z,35.45
2023-05-22T08:59:11.093Z,35.50
2023-05-22T09:00:10.853Z,35.59
2023-05-22T09:01:10.901Z,35.63
2023-05-22T09:02:10.928Z,35.64
2023-05-22T09:03:11.039Z,35.69
2023-05-22T09:04:11.081Z,35.80
2023-05-22T09:05:11.084Z,35.72
2023-05-22T09:06:11.132Z,35.81
2023-05-22T09:07:11.265Z,35.88
2023-05-22T09:08:19.856Z,35.99
2023-05-22T09:09:12.257Z,36.06
2023-05-22T09:10:11.266Z,36.09
2023-05-22T09:11:11.271Z,35.97
2023-05-22T09:12:11.237Z,35.93
2023-05-22T09:13:11.239Z,35.93
2023-05-22T09:14:11.236Z,35.94
2023-05-22T09:15:11.225Z,36.03
2023-05-22T09:16:11.235Z,36.03
2023-05-22T09:17:11.460Z,36.01
2023-05-22T09:18:11.628Z,36.04
2023-05-22T09:19:11.416Z,36.09
2023-05-22T09:20:11.442Z,36.09
2023-05-22T09:21:25.810Z,36.08
2023-05-22T09:22:12.496Z,36.00
2023-05-22T09:23:11.516Z,36.03
2023-05-22T09:24:11.714Z,36.04
2023-05-22T09:25:11.491Z,36.00
2023-05-22T09:26:11.484Z,36.06
2023-05-22T09:27:11.471Z,36.11
2023-05-22T09:28:11.472Z,36.03
2023-05-22T09:29:11.495Z,36.17
2023-05-22T09:30:11.466Z,36.18
2023-05-22T09:31:11.591Z,36.02
2023-05-22T09:32:11.586Z,35.94
2023-05-22T09:33:12.148Z,35.86
2023-05-22T09:34:11.678Z,35.87
2023-05-22T09:35:11.748Z,36.00
2023-05-22T09:36:11.797Z,36.01
2023-05-22T09:37:11.831Z,35.98
2023-05-22T09:38:12.482Z,35.83
2023-05-22T09:39:11.948Z,35.76
2023-05-22T09:40:12.016Z,35.75
2023-05-22T09:41:12.046Z,35.73
2023-05-22T09:42:12.090Z,35.71
2023-05-22T09:43:12.137Z,35.80
2023-05-22T09:44:12.176Z,35.76
2023-05-22T09:45:12.216Z,35.71
2023-05-22T09:46:12.325Z,35.69
2023-05-22T09:47:12.332Z,35.65
2023-05-22T09:48:12.370Z,35.60
2023-05-22T09:49:15.748Z,35.63
2023-05-22T09:50:12.426Z,35.78
2023-05-22T09:51:12.423Z,35.63
2023-05-22T09:52:12.490Z,35.60
2023-05-22T09:53:12.389Z,35.60
2023-05-22T09:54:12.399Z,35.65
2023-05-22T09:55:12.383Z,35.66
2023-05-22T09:56:12.387Z,35.73
2023-05-22T09:57:12.352Z,35.67
2023-05-22T09:58:12.369Z,35.69
2023-05-22T09:59:12.339Z,35.72
2023-05-22T10:00:12.364Z,35.78
2023-05-22T10:01:12.368Z,35.72
2023-05-22T10:02:12.391Z,35.70
2023-05-22T10:03:12.342Z,35.78
2023-05-22T10:04:12.417Z,35.76
2023-05-22T10:05:12.318Z,35.73
2023-05-22T10:06:12.312Z,35.76
2023-05-22T10:07:12.289Z,35.74
2023-05-22T10:08:12.306Z,35.75
2023-05-22T10:09:12.284Z,35.71
2023-05-22T10:10:12.300Z,35.65
2023-05-22T10:11:12.275Z,35.65
2023-05-22T10:12:12.370Z,35.64
2023-05-22T10:13:12.264Z,35.65
2023-05-22T10:14:12.248Z,35.57
2023-05-22T10:15:12.251Z,35.62
2023-05-22T10:16:12.333Z,35.61
2023-05-22T10:17:12.225Z,35.56
2023-05-22T10:18:12.285Z,35.60
2023-05-22T10:19:12.667Z,35.66
2023-05-22T10:20:12.293Z,35.80
2023-05-22T10:21:12.309Z,35.80
2023-05-22T10:22:12.363Z,35.80
2023-05-22T10:23:12.662Z,35.81
2023-05-22T10:24:12.378Z,35.74
2023-05-22T10:25:12.390Z,35.74
2023-05-22T10:26:12.421Z,35.64
2023-05-22T10:27:12.444Z,35.86
2023-05-22T10:28:12.556Z,35.82
2023-05-22T10:29:12.681Z,35.95
2023-05-22T10:30:12.536Z,35.89
2023-05-22T10:31:12.551Z,35.72
2023-05-22T10:32:12.604Z,35.65
2023-05-22T10:33:12.761Z,35.09
2023-05-22T10:34:12.623Z,34.42
2023-05-22T10:35:12.655Z,34.38
2023-05-22T10:36:12.671Z,34.33
2023-05-22T10:37:17.482Z,34.30
2023-05-22T10:38:13.697Z,34.25
2023-05-22T10:39:12.674Z,34.15
2023-05-22T10:40:12.678Z,33.87
2023-05-22T10:41:12.672Z,33.47
2023-05-22T10:42:12.649Z,33.48
2023-05-22T10:43:12.637Z,33.30
2023-05-22T10:44:12.722Z,33.29
2023-05-22T10:45:12.623Z,33.09
2023-05-22T10:46:12.712Z,33.00
2023-05-22T10:47:12.622Z,32.69
2023-05-22T10:48:12.670Z,32.63
2023-05-22T10:49:12.614Z,30.48
2023-05-22T10:50:12.611Z,29.77
2023-05-22T10:51:12.599Z,30.04
2023-05-22T10:52:12.579Z,29.88
2023-05-22T10:53:12.575Z,30.00
2023-05-22T10:54:12.597Z,30.01
2023-05-22T10:55:12.629Z,29.77
2023-05-22T10:56:12.646Z,29.99
2023-05-22T10:57:12.688Z,30.04
2023-05-22T10:58:12.687Z,29.95
2023-05-22T10:59:12.697Z,30.12
2023-05-22T11:00:12.822Z,30.22
2023-05-22T11:01:12.841Z,30.45
2023-05-22T11:02:12.830Z,30.63
2023-05-22T11:03:17.742Z,30.55
2023-05-22T11:04:13.829Z,30.59
2023-05-22T11:05:12.842Z,30.36
2023-05-22T11:06:12.768Z,30.56
2023-05-22T11:07:12.770Z,30.57
2023-05-22T11:08:12.746Z,30.24
2023-05-22T11:09:12.765Z,30.14
2023-05-22T11:10:12.774Z,30.33
2023-05-22T11:11:12.809Z,30.23
2023-05-22T11:12:12.809Z,30.22
2023-05-22T11:13:13.148Z,30.16
2023-05-22T11:14:12.866Z,30.02
2023-05-22T11:15:12.886Z,29.34
2023-05-22T11:16:13.013Z,28.59
2023-05-22T11:17:12.986Z,28.32
2023-05-22T11:18:13.219Z,28.54
2023-05-22T11:20:13.248Z,28.81
2023-05-22T11:21:13.028Z,28.89
2023-05-22T11:22:12.964Z,28.97
2023-05-22T11:23:12.981Z,29.05
2023-05-22T11:24:12.964Z,29.10
2023-05-22T11:25:12.955Z,29.11
2023-05-22T11:26:12.950Z,29.16
2023-05-22T11:27:12.965Z,29.16
2023-05-22T11:28:12.953Z,29.25
2023-05-22T11:29:12.947Z,29.27
2023-05-22T11:30:12.910Z,29.31
2023-05-22T11:31:12.924Z,29.38
2023-05-22T11:32:12.897Z,29.41
2023-05-22T11:33:13.227Z,29.46
2023-05-22T11:34:12.889Z,29.49
2023-05-22T11:35:12.867Z,29.50
2023-05-22T11:36:12.868Z,29.53
2023-05-22T11:37:12.860Z,29.57
2023-05-22T11:38:12.887Z,29.58
2023-05-22T11:39:12.845Z,29.64
2023-05-22T11:40:12.837Z,29.66
2023-05-22T11:41:12.838Z,29.68
2023-05-22T11:42:12.821Z,29.72
2023-05-22T11:43:12.855Z,29.71
2023-05-22T11:44:12.826Z,29.73
2023-05-22T11:45:12.803Z,29.76
2023-05-22T11:46:12.846Z,29.78
2023-05-22T11:47:12.808Z,29.82
2023-05-22T11:48:15.374Z,29.85
2023-05-22T11:49:12.782Z,29.85
2023-05-22T11:50:12.813Z,29.84
2023-05-22T11:51:12.787Z,29.87
2023-05-22T11:52:12.766Z,29.85
2023-05-22T11:53:12.798Z,29.87
2023-05-22T11:54:12.753Z,29.90
2023-05-22T11:55:12.756Z,29.90
2023-05-22T11:56:12.742Z,29.91
2023-05-22T11:57:12.727Z,29.92
2023-05-22T11:58:12.784Z,29.95
2023-05-22T11:59:12.698Z,29.95
2023-05-22T12:00:12.731Z,29.93
2023-05-22T12:01:12.687Z,29.90
2023-05-22T12:02:12.678Z,29.93
2023-05-22T12:03:13.247Z,30.20
2023-05-22T12:04:12.852Z,33.49
2023-05-22T12:05:12.660Z,31.81
2023-05-22T12:06:14.527Z,31.36
2023-05-22T12:07:12.677Z,31.18
2023-05-22T12:08:12.696Z,31.12
2023-05-22T12:09:12.656Z,30.96
2023-05-22T12:10:12.700Z,31.17
2023-05-22T12:11:12.615Z,31.14
2023-05-22T12:12:12.607Z,31.04
2023-05-22T12:13:12.607Z,31.09
2023-05-22T12:14:12.616Z,31.36
2023-05-22T12:15:12.612Z,31.71
2023-05-22T12:16:12.668Z,31.59
2023-05-22T12:17:12.601Z,31.43
2023-05-22T12:18:12.614Z,31.36
2023-05-22T12:19:12.633Z,31.31
2023-05-22T12:20:12.647Z,31.26
2023-05-22T12:21:12.550Z,31.27
2023-05-22T12:22:12.550Z,31.28
2023-05-22T12:23:12.540Z,31.30
2023-05-22T12:24:12.554Z,31.30
2023-05-22T12:25:12.542Z,31.35
2023-05-22T12:26:12.539Z,31.45
2023-05-22T12:27:12.530Z,31.51
2023-05-22T12:28:12.516Z,31.54
2023-05-22T12:29:12.506Z,31.55
2023-05-22T12:30:12.491Z,31.56
2023-05-22T12:31:12.493Z,31.55
2023-05-22T12:32:12.646Z,31.60
2023-05-22T12:33:12.661Z,31.59
2023-05-22T12:34:12.688Z,31.57
2023-05-22T12:35:12.728Z,31.59
2023-05-22T12:36:12.880Z,31.61
2023-05-22T12:37:12.857Z,31.60
2023-05-22T12:38:12.924Z,31.61
2023-05-22T12:39:12.987Z,31.61
2023-05-22T12:40:13.042Z,31.59
2023-05-22T12:41:13.066Z,31.58
2023-05-22T12:42:13.147Z,31.56
2023-05-22T12:43:13.214Z,31.53
2023-05-22T12:44:13.327Z,31.52
2023-05-22T12:45:13.364Z,31.49
2023-05-22T12:46:13.398Z,31.47
2023-05-22T12:47:13.448Z,31.46
2023-05-22T12:48:13.564Z,31.44
2023-05-22T12:49:13.583Z,31.43
2023-05-22T12:50:13.650Z,31.42
2023-05-22T12:51:13.684Z,31.39
2023-05-22T12:52:13.847Z,31.35
2023-05-22T12:53:13.818Z,31.33
2023-05-22T12:54:13.893Z,31.34